Terminal Aerodrome Forecast
Issued by NWS

Home | Current Version | Previous Version | Text Only | Print | Product List | Glossary On
Versions: 1 2 3 4 5 6 7 8 9 10 11 12 13 14 15
000
FTUS42 KMLB 261211 AAA
TAFSFB
TAF AMD
KSFB 261211Z 2612/2712 25009KT P6SM SCT020 BKN040
     FM261300 26012KT P6SM VCSH SCT025 BKN035
     FM261500 27017G25KT P6SM VCSH SCT035 BKN050 BKN250
     FM262300 26012KT P6SM VCSH SCT020 BKN040 BKN250
     FM270500 24009KT P6SM SCT010 BKN020=

USA.gov is the U.S. government's official web portal to all federal, state and local government web resources and services.